Time;durP1;ratioP1;P1;durP2;ratioP2;P2;SDS_P1;SDS_P2;PMS_P1;PMS_P2;Temp;Humidity;BMP_temperature;BMP_pressure;BME280_temperature;BME280_humidity;BME280_pressure;Samples;Min_cycle;Max_cycle;Signal;HPM_P1;HPM_P2
2021/10/27 00:02:25;;;;;;;2.65;1.50;;;;;;;16.60;46.86;102685.18;1732398;82;20979;-51
2021/10/27 00:04:52;;;;;;;2.83;1.85;;;;;;;16.60;46.91;102681.23;1730986;82;21060;-51
2021/10/27 00:07:19;;;;;;;2.05;1.47;;;;;;;16.60;46.46;102678.61;1720024;82;21503;-51
2021/10/27 00:09:45;;;;;;;3.00;2.05;;;;;;;16.60;46.36;102670.72;1727619;82;21090;-52
2021/10/27 00:12:15;;;;;;;1.75;1.50;;;;;;;16.61;46.65;102672.48;1729803;82;21563;-51
2021/10/27 00:14:41;;;;;;;3.25;1.60;;;;;;;16.61;47.00;102667.22;1726277;82;21086;-50
2021/10/27 00:17:09;;;;;;;1.98;1.70;;;;;;;16.62;46.83;102676.38;1724766;82;21012;-50
2021/10/27 00:19:36;;;;;;;2.67;1.65;;;;;;;16.63;46.78;102675.95;1718079;82;21043;-53
2021/10/27 00:22:03;;;;;;;2.65;1.50;;;;;;;16.63;46.52;102679.89;1727724;82;21011;-51
2021/10/27 00:24:31;;;;;;;2.60;1.52;;;;;;;16.62;46.29;102678.14;1727556;82;21059;-52
2021/10/27 00:26:59;;;;;;;1.52;1.35;;;;;;;16.60;46.30;102684.73;1727054;82;21507;-51
2021/10/27 00:29:25;;;;;;;2.33;1.62;;;;;;;16.60;46.14;102677.30;1727585;82;21043;-51
2021/10/27 00:31:52;;;;;;;2.02;1.80;;;;;;;16.58;46.24;102678.64;1727618;82;21026;-52
2021/10/27 00:34:18;;;;;;;5.17;1.87;;;;;;;16.58;46.35;102677.33;1729901;82;21050;-49
2021/10/27 00:36:46;;;;;;;2.02;1.45;;;;;;;16.57;46.38;102670.79;1730284;82;21098;-50
2021/10/27 00:39:12;;;;;;;1.98;1.70;;;;;;;16.57;46.45;102673.42;1728881;82;21090;-51
2021/10/27 00:41:44;;;;;;;1.42;1.32;;;;;;;16.57;46.85;102661.59;1728569;82;21011;-50
2021/10/27 00:44:24;;;;;;;2.92;1.22;;;;;;;16.58;46.64;102668.13;1726466;82;21019;-52
2021/10/27 00:47:08;;;;;;;2.90;1.32;;;;;;;16.59;46.60;102665.06;1726663;82;21030;-52
2021/10/27 00:49:36;;;;;;;1.95;1.50;;;;;;;16.61;46.28;102659.33;1729325;82;21067;-52
2021/10/27 00:52:05;;;;;;;2.50;1.55;;;;;;;16.64;46.42;102657.95;1728432;82;21019;-52
2021/10/27 00:54:33;;;;;;;2.15;1.50;;;;;;;16.66;46.63;102652.22;1731063;82;21042;-53
2021/10/27 00:57:00;;;;;;;2.72;1.50;;;;;;;16.67;46.35;102651.34;1730183;82;21035;-51
2021/10/27 00:59:27;;;;;;;2.33;1.80;;;;;;;16.67;46.05;102650.03;1728293;82;21000;-51
2021/10/27 01:01:54;;;;;;;1.70;1.35;;;;;;;16.67;46.23;102651.34;1703075;83;21507;-51
2021/10/27 01:04:22;;;;;;;2.72;1.65;;;;;;;16.67;46.33;102652.19;1729715;82;21019;-50
2021/10/27 01:06:49;;;;;;;2.50;1.57;;;;;;;16.67;46.30;102656.59;1727288;82;21046;-51
2021/10/27 01:09:17;;;;;;;1.42;1.32;;;;;;;16.67;46.60;102653.97;1723388;82;21082;-50
2021/10/27 01:11:44;;;;;;;2.35;1.60;;;;;;;16.67;46.36;102652.66;1729565;82;21054;-51
2021/10/27 01:14:11;;;;;;;1.92;1.32;;;;;;;16.65;46.32;102642.62;1730589;82;21038;-51
2021/10/27 01:16:38;;;;;;;1.72;1.40;;;;;;;16.65;46.34;102645.25;1718478;82;21062;-50
2021/10/27 01:19:05;;;;;;;6.00;1.47;;;;;;;16.65;46.45;102646.09;1724843;82;21034;-50
2021/10/27 01:21:32;;;;;;;2.70;1.85;;;;;;;16.65;46.44;102645.25;1721172;82;21105;-51
2021/10/27 01:23:59;;;;;;;1.92;1.55;;;;;;;16.67;46.37;102647.40;1727237;82;21105;-51
2021/10/27 01:26:27;;;;;;;3.65;1.80;;;;;;;16.69;46.18;102645.61;1725918;82;21030;-49
2021/10/27 01:28:54;;;;;;;3.05;1.85;;;;;;;16.70;46.05;102643.39;1729112;82;21050;-52
2021/10/27 01:31:22;;;;;;;8.05;2.12;;;;;;;16.72;45.85;102646.86;1729551;82;21046;-50
2021/10/27 01:33:48;;;;;;;2.90;1.85;;;;;;;16.73;45.82;102644.67;1730308;82;21047;-51
2021/10/27 01:36:16;;;;;;;3.17;1.60;;;;;;;16.73;46.35;102643.35;1730380;82;20972;-50
2021/10/27 01:38:44;;;;;;;1.27;1.17;;;;;;;16.73;46.20;102643.35;1727771;82;21557;-52
2021/10/27 01:41:10;;;;;;;2.20;1.70;;;;;;;16.71;46.03;102641.20;1727505;82;21479;-50
2021/10/27 01:43:55;;;;;;;2.35;1.65;;;;;;;16.70;45.94;102633.75;1727253;82;21062;-52
2021/10/27 01:46:30;;;;;;;3.95;1.60;;;;;;;16.69;46.05;102637.73;1721543;82;20972;-55
2021/10/27 01:49:02;;;;;;;1.65;1.32;;;;;;;16.69;46.03;102641.67;1730609;82;21527;-53
2021/10/27 01:51:28;;;;;;;;;;;;;;;16.67;46.05;102641.67;1733439;82;20998;-51
2021/10/27 01:53:55;;;;;;;1.55;1.27;;;;;;;16.66;46.07;102636.45;1729142;82;20111;-51
2021/10/27 01:56:23;;;;;;;3.08;1.60;;;;;;;16.65;45.77;102639.98;1728447;82;21629;-50
2021/10/27 01:58:55;;;;;;;2.30;1.30;;;;;;;16.63;46.09;102632.11;1726453;82;21042;-53
2021/10/27 02:01:23;;;;;;;3.62;1.55;;;;;;;16.63;45.83;102633.89;1731453;82;21044;-52
2021/10/27 02:03:50;;;;;;;1.77;1.50;;;;;;;16.65;45.71;102638.67;1730868;82;21014;-51
2021/10/27 02:06:17;;;;;;;1.67;1.40;;;;;;;16.67;45.77;102638.20;1736671;82;21511;-52
2021/10/27 02:08:44;;;;;;;4.03;2.10;;;;;;;16.69;45.38;102632.47;1735581;82;20999;-51
2021/10/27 02:11:10;;;;;;;2.42;1.92;;;;;;;16.70;45.14;102640.76;1735778;82;21578;-56
2021/10/27 02:13:37;;;;;;;4.87;2.02;;;;;;;16.72;44.95;102638.97;1735435;82;21011;-52
2021/10/27 02:16:04;;;;;;;2.25;1.30;;;;;;;16.71;44.95;102637.25;1733195;81;21490;-52
2021/10/27 02:18:33;;;;;;;2.98;1.60;;;;;;;16.72;45.11;102633.71;1734585;82;21051;-51
2021/10/27 02:20:59;;;;;;;4.20;1.87;;;;;;;16.71;44.68;102639.88;1725670;82;21081;-51
2021/10/27 02:23:25;;;;;;;1.85;1.67;;;;;;;16.71;44.53;102644.67;1738705;82;21097;-50
2021/10/27 02:25:52;;;;;;;4.78;1.70;;;;;;;16.70;44.45;102643.39;1736717;82;21058;-51
2021/10/27 02:28:19;;;;;;;3.70;1.80;;;;;;;16.69;44.34;102639.05;1736958;81;20994;-52
2021/10/27 02:30:46;;;;;;;3.30;1.80;;;;;;;16.67;44.37;102637.73;1737455;82;21022;-51
2021/10/27 02:33:15;;;;;;;1.70;1.40;;;;;;;16.66;44.79;102643.02;1725676;82;21096;-51
2021/10/27 02:35:41;;;;;;;1.57;1.10;;;;;;;16.65;44.80;102649.19;1740659;82;21478;-54
2021/10/27 02:38:09;;;;;;;3.70;1.60;;;;;;;16.64;44.46;102646.13;1735572;81;21030;-50
2021/10/27 02:40:35;;;;;;;3.15;1.90;;;;;;;16.62;44.35;102653.17;1735459;82;21518;-52
2021/10/27 02:43:02;;;;;;;2.77;1.65;;;;;;;16.62;44.46;102657.98;1737330;82;21002;-52
2021/10/27 02:45:29;;;;;;;1.67;1.40;;;;;;;16.61;44.64;102652.77;1733897;82;21041;-51
2021/10/27 02:47:56;;;;;;;2.15;1.52;;;;;;;16.59;44.42;102650.61;1740006;81;20959;-51
2021/10/27 02:50:23;;;;;;;1.92;1.20;;;;;;;16.59;44.44;102658.48;1737689;82;21554;-51
2021/10/27 02:52:49;;;;;;;1.50;1.40;;;;;;;16.58;44.75;102656.30;1735655;82;21522;-56
2021/10/27 02:55:16;;;;;;;3.25;1.52;;;;;;;16.58;44.93;102654.11;1735626;82;21079;-50
2021/10/27 02:57:43;;;;;;;5.28;1.62;;;;;;;16.56;44.57;102656.77;1734959;82;21095;-51
2021/10/27 03:00:12;;;;;;;4.00;1.45;;;;;;;16.55;44.61;102657.66;1729764;82;21360;-54
2021/10/27 03:02:40;;;;;;;2.37;1.62;;;;;;;16.56;44.92;102653.27;1734061;82;20986;-50
2021/10/27 03:05:08;;;;;;;5.03;2.22;;;;;;;16.57;44.99;102655.02;1738912;82;21531;-52
2021/10/27 03:07:36;;;;;;;1.37;1.20;;;;;;;16.56;44.55;102654.14;1730159;82;21035;-52
2021/10/27 03:10:04;;;;;;;4.25;1.70;;;;;;;16.55;44.26;102653.70;1727716;82;21062;-51
2021/10/27 03:12:31;;;;;;;1.42;1.32;;;;;;;16.55;44.63;102656.34;1727623;82;21059;-52
2021/10/27 03:14:59;;;;;;;2.25;1.77;;;;;;;16.54;44.01;102662.94;1727143;82;21043;-52
2021/10/27 03:17:25;;;;;;;1.92;1.40;;;;;;;16.53;43.77;102661.19;1727512;82;21456;-50
2021/10/27 03:19:52;;;;;;;2.22;1.20;;;;;;;16.54;43.85;102666.88;1728008;82;21075;-53
2021/10/27 03:22:19;;;;;;;6.65;1.77;;;;;;;16.53;43.17;102666.45;1725819;82;21003;-50
2021/10/27 03:24:47;;;;;;;3.75;1.87;;;;;;;16.53;42.79;102664.69;1730686;82;21050;-51
2021/10/27 03:27:14;;;;;;;2.92;1.47;;;;;;;16.55;42.74;102663.38;1728105;82;21034;-51
2021/10/27 03:29:41;;;;;;;4.47;1.25;;;;;;;16.56;42.55;102661.16;1727583;82;21019;-50
2021/10/27 03:32:09;;;;;;;1.45;1.20;;;;;;;16.56;42.50;102655.90;1727092;82;21495;-52
2021/10/27 03:34:37;;;;;;;4.40;1.70;;;;;;;16.56;42.55;102648.02;1727953;82;21546;-50
2021/10/27 03:37:05;;;;;;;2.15;1.32;;;;;;;16.56;42.41;102651.95;1727510;82;21002;-51
2021/10/27 03:39:32;;;;;;;2.02;1.60;;;;;;;16.56;42.13;102650.64;1729041;82;21018;-51
2021/10/27 03:41:58;;;;;;;2.05;1.27;;;;;;;16.56;42.31;102649.33;1726532;82;21066;-51
2021/10/27 03:44:26;;;;;;;2.67;1.45;;;;;;;16.56;42.60;102650.64;1730745;82;21468;-53
2021/10/27 03:46:53;;;;;;;2.50;1.52;;;;;;;16.55;42.64;102649.77;1721524;82;21066;-52
2021/10/27 03:49:20;;;;;;;3.65;1.62;;;;;;;16.56;42.80;102659.84;1727534;82;21003;-50
2021/10/27 03:51:46;;;;;;;3.92;1.47;;;;;;;16.54;42.85;102655.05;1728375;82;21071;-49
2021/10/27 03:54:14;;;;;;;1.40;1.30;;;;;;;16.55;42.71;102657.66;1730604;82;21033;-51
2021/10/27 03:56:41;;;;;;;1.47;1.37;;;;;;;16.55;42.60;102651.55;1730390;82;21011;-55
2021/10/27 03:59:07;;;;;;;5.17;1.57;;;;;;;16.55;42.66;102655.50;1727928;82;21546;-51
2021/10/27 04:01:35;;;;;;;3.02;2.30;;;;;;;16.55;42.71;102648.92;1729091;82;21102;-50
2021/10/27 04:04:02;;;;;;;2.65;1.70;;;;;;;16.54;42.70;102651.11;1729623;82;20998;-51
2021/10/27 04:06:28;;;;;;;1.67;1.32;;;;;;;16.54;42.65;102653.30;1735173;82;21506;-51
2021/10/27 04:08:57;;;;;;;2.77;1.42;;;;;;;16.54;42.31;102649.36;1738329;82;21026;-52
2021/10/27 04:11:23;;;;;;;3.05;1.30;;;;;;;16.55;41.88;102647.61;1735687;82;21058;-52
2021/10/27 04:13:50;;;;;;;2.42;1.30;;;;;;;16.55;41.60;102651.55;1735248;81;20991;-53
2021/10/27 04:16:17;;;;;;;2.33;1.55;;;;;;;16.55;41.87;102646.30;1730777;82;21506;-50
2021/10/27 04:18:44;;;;;;;3.62;1.60;;;;;;;16.55;41.99;102648.92;1738623;82;21046;-51
2021/10/27 04:21:11;;;;;;;5.60;1.70;;;;;;;16.55;41.66;102645.83;1734180;82;21070;-50
2021/10/27 04:23:37;;;;;;;1.95;1.50;;;;;;;16.55;41.66;102644.98;1725524;82;21050;-52
2021/10/27 04:26:04;;;;;;;3.62;1.40;;;;;;;16.55;41.83;102647.61;1737662;82;21070;-51
2021/10/27 04:28:30;;;;;;;2.72;1.77;;;;;;;16.55;41.66;102645.83;1738695;81;21002;-50
2021/10/27 04:30:58;;;;;;;2.37;1.70;;;;;;;16.55;41.23;102642.35;1738355;82;21062;-52
2021/10/27 04:33:24;;;;;;;3.05;1.60;;;;;;;16.54;40.99;102644.55;1736877;82;21554;-55
2021/10/27 04:35:52;;;;;;;2.90;1.67;;;;;;;16.53;41.04;102642.80;1735366;82;20998;-50
2021/10/27 04:38:22;;;;;;;3.15;1.40;;;;;;;16.53;40.73;102646.30;1734821;82;20991;-50
2021/10/27 04:40:49;;;;;;;2.02;1.40;;;;;;;16.53;40.72;102646.73;1735929;81;21066;-49
2021/10/27 04:43:17;;;;;;;2.75;1.25;;;;;;;16.53;40.48;102643.67;1734949;82;21030;-51
2021/10/27 04:45:44;;;;;;;1.90;1.17;;;;;;;16.53;40.22;102641.05;1733798;82;21022;-52
2021/10/27 04:48:10;;;;;;;3.65;1.30;;;;;;;16.53;40.08;102642.80;1741121;82;21006;-53
2021/10/27 04:50:37;;;;;;;1.98;1.40;;;;;;;16.53;40.11;102648.05;1734504;82;21037;-53
2021/10/27 04:53:07;;;;;;;1.82;1.47;;;;;;;16.53;40.28;102645.42;1741772;81;21046;-52
2021/10/27 04:55:34;;;;;;;2.17;1.57;;;;;;;16.53;40.28;102645.42;1727683;82;21491;-52
2021/10/27 04:58:00;;;;;;;2.72;1.52;;;;;;;16.55;40.25;102651.55;1735615;82;21038;-52
2021/10/27 05:00:27;;;;;;;3.22;1.75;;;;;;;16.56;40.31;102650.64;1736603;82;20994;-54
2021/10/27 05:02:53;;;;;;;5.55;1.60;;;;;;;16.57;40.38;102660.28;1738450;82;20983;-51
2021/10/27 05:05:20;;;;;;;3.72;1.80;;;;;;;16.57;40.59;102662.44;1738420;82;21042;-53
2021/10/27 05:07:46;;;;;;;1.90;1.57;;;;;;;16.59;40.64;102666.38;1727750;82;21035;-51
2021/10/27 05:10:13;;;;;;;4.97;1.50;;;;;;;16.59;40.27;102667.69;1728767;82;21019;-52
2021/10/27 05:12:40;;;;;;;3.05;1.40;;;;;;;16.59;40.20;102667.69;1725862;82;21010;-49
2021/10/27 05:15:08;;;;;;;2.08;1.67;;;;;;;16.60;40.30;102672.03;1731580;82;21015;-52
2021/10/27 05:17:35;;;;;;;1.95;1.47;;;;;;;16.61;40.06;102671.16;1729864;82;21484;-50
2021/10/27 05:20:03;;;;;;;3.67;1.80;;;;;;;16.62;39.99;102671.56;1717517;82;21011;-51
2021/10/27 05:22:30;;;;;;;3.58;1.65;;;;;;;16.62;40.11;102679.45;1726514;82;21035;-50
2021/10/27 05:24:57;;;;;;;2.85;1.75;;;;;;;16.63;40.27;102674.63;1720553;82;21035;-50
2021/10/27 05:27:23;;;;;;;1.40;1.30;;;;;;;16.64;40.31;102677.66;1727935;82;20971;-51
2021/10/27 05:29:50;;;;;;;4.45;1.77;;;;;;;16.65;40.32;102685.98;1729038;82;21098;-50
2021/10/27 05:32:17;;;;;;;2.08;1.40;;;;;;;16.66;40.38;102689.02;1730505;82;21002;-52
2021/10/27 05:34:44;;;;;;;3.00;1.77;;;;;;;16.67;40.21;102686.83;1729671;82;20999;-51
2021/10/27 05:37:11;;;;;;;1.50;1.40;;;;;;;16.67;40.04;102690.77;1727513;82;20974;-50
2021/10/27 05:39:37;;;;;;;1.75;1.47;;;;;;;16.68;39.96;102687.23;1732927;82;21019;-53
2021/10/27 05:42:09;;;;;;;3.67;1.55;;;;;;;16.69;39.95;102688.52;1730453;82;21003;-51
2021/10/27 05:44:33;;;;;;;5.03;1.92;;;;;;;16.71;39.86;102687.20;1727278;82;21027;-52
2021/10/27 05:47:00;;;;;;;2.52;1.87;;;;;;;16.72;39.96;102690.23;1717580;82;21027;-52
2021/10/27 05:52:01;;;;;;;2.25;1.25;;;;;;;16.76;40.19;102695.86;1728312;82;21082;-50
2021/10/27 05:57:10;;;;;;;2.75;1.40;;;;;;;16.79;40.23;102710.28;1727667;82;21038;-49
2021/10/27 05:59:37;;;;;;;3.27;1.60;;;;;;;16.78;40.08;102705.91;1729588;82;20987;-52
2021/10/27 06:02:04;;;;;;;4.37;1.80;;;;;;;16.81;40.14;102704.55;1730368;82;21086;-51
2021/10/27 06:04:31;;;;;;;1.98;1.55;;;;;;;16.82;40.19;102704.95;1730272;82;21031;-51
2021/10/27 06:06:57;;;;;;;1.82;1.62;;;;;;;16.83;40.07;102711.97;1721951;82;21066;-51
2021/10/27 06:09:26;;;;;;;4.62;1.77;;;;;;;16.84;40.05;102709.74;1738538;82;21066;-51
2021/10/27 06:11:52;;;;;;;1.98;1.40;;;;;;;16.85;40.15;102706.23;1738018;82;21062;-50
2021/10/27 06:14:19;;;;;;;4.40;1.40;;;;;;;16.87;40.20;102718.91;1735767;82;21085;-51
2021/10/27 06:16:48;;;;;;;2.25;1.60;;;;;;;16.89;40.20;102723.70;1736799;81;21030;-51
2021/10/27 06:19:14;;;;;;;2.95;1.50;;;;;;;16.90;40.11;102730.67;1737725;82;21018;-50
2021/10/27 06:21:41;;;;;;;3.08;1.85;;;;;;;16.91;40.24;102729.80;1738530;82;20967;-49
2021/10/27 06:24:08;;;;;;;2.77;1.75;;;;;;;16.93;40.24;102729.33;1725413;82;21518;-51
2021/10/27 06:26:35;;;;;;;2.80;1.60;;;;;;;16.94;40.27;102732.36;1735570;82;21079;-50
2021/10/27 06:29:04;;;;;;;3.87;1.62;;;;;;;16.94;40.29;102725.34;1737360;81;21058;-49
2021/10/27 06:31:36;;;;;;;4.97;1.62;;;;;;;16.95;40.40;102728.41;1737768;82;21030;-55
2021/10/27 06:34:09;;;;;;;3.30;1.37;;;;;;;16.97;40.51;102727.94;1734359;82;21546;-52
2021/10/27 06:47:14;;;;;;;2.45;1.95;;;;;;;17.03;41.56;102733.09;1734066;82;21550;-51
2021/10/27 06:49:41;;;;;;;3.22;1.92;;;;;;;17.05;41.50;102725.17;1735350;81;21499;-52
2021/10/27 06:52:08;;;;;;;2.72;1.60;;;;;;;17.07;41.22;102726.00;1735645;82;21081;-51
2021/10/27 06:54:35;;;;;;;2.45;1.60;;;;;;;17.08;40.84;102720.70;1735495;82;21439;-51
2021/10/27 06:57:04;;;;;;;2.50;1.50;;;;;;;17.10;40.75;102724.66;1737534;81;21522;-50
2021/10/27 06:59:34;;;;;;;2.25;1.47;;;;;;;17.10;40.44;102725.50;1738580;82;21519;-50
2021/10/27 07:14:55;;;;;;;2.25;1.50;;;;;;;17.19;40.55;102722.31;1733741;82;21027;-50
2021/10/27 07:15:27;;;;;;;4.12;1.60;;;;;;;17.25;39.94;102726.98;1727200;81;21046;-50
2021/10/27 07:17:53;;;;;;;2.98;1.60;;;;;;;17.27;39.96;102719.94;1734686;82;21039;-53
2021/10/27 07:20:22;;;;;;;3.87;1.37;;;;;;;17.30;39.85;102713.75;1738701;82;20982;-50
2021/10/27 07:22:50;;;;;;;2.58;1.40;;;;;;;17.31;39.94;102712.41;1736965;82;21015;-50
2021/10/27 07:25:17;;;;;;;3.45;1.55;;;;;;;17.33;40.11;102714.55;1734353;82;21530;-51
2021/10/27 07:27:45;;;;;;;5.30;1.77;;;;;;;17.35;39.97;102708.81;1735554;82;21030;-51
2021/10/27 07:30:13;;;;;;;1.65;1.52;;;;;;;17.37;40.03;102710.12;1735219;82;21030;-51
2021/10/27 07:32:40;;;;;;;5.65;1.50;;;;;;;17.37;40.22;102716.23;1735639;82;21054;-53
2021/10/27 07:42:55;;;;;;;2.90;1.35;;;;;;;17.47;39.54;102711.24;1735603;82;21031;-51
2021/10/27 07:45:23;;;;;;;4.85;1.60;;;;;;;17.51;39.46;102713.39;1662966;85;21577;-50
2021/10/27 07:47:50;;;;;;;1.87;1.40;;;;;;;17.53;39.35;102708.52;1669243;85;21590;-50
2021/10/27 07:50:18;;;;;;;1.70;1.20;;;;;;;17.56;39.31;102707.13;1678362;85;20967;-53
2021/10/27 07:52:45;;;;;;;3.40;1.40;;;;;;;17.60;39.42;102704.85;1666976;85;21106;-49
2021/10/27 07:55:11;;;;;;;3.17;1.60;;;;;;;17.63;39.46;102702.17;1672940;85;20987;-50
2021/10/27 07:57:39;;;;;;;1.82;1.30;;;;;;;17.66;39.24;102694.20;1673203;85;21043;-51
2021/10/27 08:00:08;;;;;;;2.65;1.70;;;;;;;17.70;39.09;102689.28;1669291;85;21102;-51
2021/10/27 08:02:37;;;;;;;2.70;1.20;;;;;;;17.74;39.09;102683.05;1675787;85;21039;-51
2021/10/27 08:05:06;;;;;;;1.60;1.20;;;;;;;17.78;38.92;102683.41;1671554;85;21526;-50
2021/10/27 08:07:33;;;;;;;1.32;1.22;;;;;;;17.82;38.89;102679.84;1674331;85;21494;-51
2021/10/27 08:10:00;;;;;;;1.67;1.25;;;;;;;17.87;38.95;102676.64;1681883;85;20995;-49
2021/10/27 08:12:26;;;;;;;3.62;1.57;;;;;;;17.93;39.13;102682.69;1677241;85;21151;-53
2021/10/27 08:14:55;;;;;;;2.02;1.37;;;;;;;17.96;39.00;102682.61;1678808;85;21062;-49
2021/10/27 08:17:23;;;;;;;1.60;1.40;;;;;;;17.98;38.80;102682.12;1680239;85;21082;-50
2021/10/27 08:19:50;;;;;;;3.08;1.30;;;;;;;18.00;38.85;102679.00;1680309;85;21160;-50
2021/10/27 08:22:17;;;;;;;2.72;1.40;;;;;;;18.03;38.76;102677.63;1680209;85;21054;-50
2021/10/27 08:24:44;;;;;;;3.77;1.30;;;;;;;18.05;38.81;102677.15;1681927;85;21519;-54
2021/10/27 08:27:12;;;;;;;2.08;1.20;;;;;;;18.07;39.13;102675.34;1678492;85;21053;-49
2021/10/27 08:29:40;;;;;;;1.70;1.30;;;;;;;18.09;38.87;102680.13;1677220;85;21006;-50
2021/10/27 08:32:30;;;;;;;1.85;1.40;;;;;;;18.10;38.40;102673.94;1677351;85;21062;-52
2021/10/27 08:34:48;;;;;;;2.00;1.12;;;;;;;18.13;38.45;102676.52;1677738;85;21078;-50
2021/10/27 08:37:16;;;;;;;2.22;1.30;;;;;;;18.16;38.56;102676.44;1679930;85;21553;-51
2021/10/27 08:39:44;;;;;;;2.17;1.45;;;;;;;18.18;38.56;102676.83;1678537;85;21499;-51
2021/10/27 08:42:13;;;;;;;2.00;1.50;;;;;;;18.21;38.46;102677.21;1710515;82;21038;-50
2021/10/27 08:44:42;;;;;;;1.72;1.40;;;;;;;18.25;38.55;102676.23;1744246;81;21542;-49
2021/10/27 08:47:09;;;;;;;1.75;1.25;;;;;;;18.29;38.91;102669.99;1665916;86;21026;-50
2021/10/27 08:49:38;;;;;;;1.87;1.60;;;;;;;18.33;38.92;102671.66;1665970;86;21996;-52
2021/10/27 08:52:09;;;;;;;1.52;1.07;;;;;;;18.37;38.67;102662.33;1665980;86;21078;-51
2021/10/27 08:54:34;;;;;;;1.65;1.40;;;;;;;18.42;38.68;102659.59;1662877;86;21077;-50
2021/10/27 08:57:08;;;;;;;2.12;1.15;;;;;;;18.48;38.80;102663.42;1666193;86;21056;-53
2021/10/27 09:14:30;;;;;;;3.42;1.50;;;;;;;18.74;38.51;102679.91;1537450;93;21566;-51
2021/10/27 10:06:14;;;;;;;7.17;5.65;;;;;;;18.79;39.26;102653.84;1489812;95;21602;-50
2021/10/27 10:08:43;;;;;;;7.72;6.65;;;;;;;18.79;39.25;102648.58;1531458;92;21193;-53
2021/10/27 10:11:11;;;;;;;3.12;2.83;;;;;;;18.81;39.36;102643.25;1525815;92;21131;-53
2021/10/27 10:13:41;;;;;;;2.75;2.55;;;;;;;18.82;39.26;102644.52;1579850;91;21133;-52
2021/10/27 10:16:08;;;;;;;2.92;2.02;;;;;;;18.82;39.17;102645.84;1535012;92;21069;-53
2021/10/27 10:18:35;;;;;;;3.30;2.20;;;;;;;18.83;39.18;102643.63;1579723;91;21095;-51
2021/10/27 10:21:01;;;;;;;2.17;1.98;;;;;;;18.86;39.24;102645.30;1541148;92;21054;-51
2021/10/27 10:23:28;;;;;;;3.67;2.87;;;;;;;18.85;39.27;102636.55;1579701;91;21069;-53
2021/10/27 10:26:02;;;;;;;4.47;3.52;;;;;;;18.86;39.48;102642.21;1556392;92;21090;-52
2021/10/27 10:28:31;;;;;;;4.55;3.00;;;;;;;18.87;39.42;102638.69;1579828;91;21042;-53
2021/10/27 10:31:01;;;;;;;3.45;2.20;;;;;;;18.86;39.47;102636.94;1553341;92;21118;-52
2021/10/27 10:33:44;;;;;;;2.12;1.60;;;;;;;18.86;39.51;102634.30;1579665;91;21073;-55
2021/10/27 10:36:25;;;;;;;2.92;1.75;;;;;;;18.87;39.25;102622.86;1556089;92;21549;-50
2021/10/27 11:24:58;;;;;;;2.15;1.40;;;;;;;18.96;38.76;102562.39;1655656;86;21227;-53
2021/10/27 11:38:38;;;;;;;1.80;1.37;;;;;;;18.98;38.09;102546.91;1590103;90;21620;-52
2021/10/27 11:41:15;;;;;;;2.67;1.40;;;;;;;18.97;37.99;102545.20;1590093;90;21603;-55
2021/10/27 11:47:08;;;;;;;1.95;1.37;;;;;;;18.95;38.21;102554.92;1600110;89;21137;-50
2021/10/27 11:49:42;;;;;;;1.72;1.20;;;;;;;18.93;38.16;102552.78;1598936;89;21605;-53
2021/10/27 11:52:10;;;;;;;1.92;1.50;;;;;;;18.92;38.31;102551.04;1569768;91;21596;-50
2021/10/27 11:54:38;;;;;;;4.50;1.70;;;;;;;18.92;38.36;102555.47;1570322;91;21070;-54
2021/10/27 11:57:06;;;;;;;2.17;1.42;;;;;;;18.92;38.45;102558.95;1570196;91;21095;-50
2021/10/27 12:02:15;;;;;;;2.20;1.55;;;;;;;18.93;38.87;102545.32;1531597;93;21597;-51
2021/10/27 12:04:43;;;;;;;1.72;1.50;;;;;;;18.93;39.17;102548.83;1550390;91;21570;-53
2021/10/27 12:07:33;;;;;;;1.20;1.07;;;;;;;18.93;39.17;102547.52;1555103;91;21073;-50
2021/10/27 12:10:25;;;;;;;1.80;1.30;;;;;;;18.94;39.23;102543.95;1540619;92;21107;-49
2021/10/27 12:12:56;;;;;;;1.90;1.32;;;;;;;18.95;39.28;102541.73;1547484;92;21122;-50
2021/10/27 12:18:11;;;;;;;2.10;1.57;;;;;;;18.97;38.80;102543.88;1552047;91;21119;-52
2021/10/27 12:20:41;;;;;;;4.37;1.75;;;;;;;18.98;39.13;102542.95;1593412;89;21549;-53
2021/10/27 12:23:21;;;;;;;2.02;1.45;;;;;;;18.96;39.21;102534.22;1585723;89;21049;-53
2021/10/27 12:25:49;;;;;;;1.57;1.45;;;;;;;18.98;38.90;102532.40;1537082;92;21116;-51
2021/10/27 12:28:33;;;;;;;2.45;1.42;;;;;;;19.01;38.97;102536.28;1543652;90;21127;-51
2021/10/27 12:31:20;;;;;;;2.85;1.85;;;;;;;19.05;39.03;102531.33;1557328;91;21047;-50
2021/10/27 12:33:48;;;;;;;3.62;1.60;;;;;;;19.09;38.99;102535.61;1556818;91;21067;-54
2021/10/27 12:36:34;;;;;;;2.02;1.60;;;;;;;19.13;39.02;102538.56;1557169;91;21551;-50
2021/10/27 12:39:20;;;;;;;2.70;1.70;;;;;;;19.18;39.26;102543.27;1556992;91;21108;-53
2021/10/27 12:42:02;;;;;;;1.82;1.50;;;;;;;19.22;39.03;102538.31;1556784;91;21107;-52
2021/10/27 12:44:29;;;;;;;3.02;1.90;;;;;;;19.25;39.14;102535.56;1556859;91;21099;-51
2021/10/27 12:47:16;;;;;;;4.00;1.60;;;;;;;19.29;38.83;102533.69;1552619;91;21169;-50
2021/10/27 12:49:46;;;;;;;2.27;1.55;;;;;;;19.31;39.12;102531.87;1539167;93;21625;-51
2021/10/27 12:52:27;;;;;;;2.10;1.52;;;;;;;19.32;39.29;102537.12;1533018;93;21620;-53
2021/10/27 12:55:26;;;;;;;5.47;1.62;;;;;;;19.32;39.25;102537.12;1533243;93;21077;-52
2021/10/27 12:58:16;;;;;;;3.50;1.50;;;;;;;19.31;39.10;102535.38;1554292;91;21078;-51
2021/10/27 13:01:02;;;;;;;1.67;1.47;;;;;;;19.29;39.19;102525.77;1549879;92;21060;-51
2021/10/27 13:03:59;;;;;;;1.55;1.32;;;;;;;19.28;39.05;102527.57;1549686;93;21096;-52
2021/10/27 13:30:12;;;;;;;2.37;1.50;;;;;;;18.98;39.74;102528.44;1646387;86;21015;-51
2021/10/27 13:32:43;;;;;;;4.53;1.60;;;;;;;18.93;40.03;102521.13;1614773;88;21066;-52
2021/10/27 13:35:08;;;;;;;3.30;1.70;;;;;;;18.91;40.33;102522.95;1647023;86;21432;-50
2021/10/27 13:37:36;;;;;;;10.85;2.10;;;;;;;18.88;40.52;102524.34;1646671;86;21037;-49
2021/10/27 13:40:05;;;;;;;2.60;1.47;;;;;;;18.85;40.61;102520.48;1646583;86;21019;-51
2021/10/27 13:42:39;;;;;;;13.18;2.17;;;;;;;18.83;41.17;102523.62;1648584;86;21006;-50
2021/10/27 13:45:13;;;;;;;8.93;1.80;;;;;;;18.82;41.43;102532.42;1638232;86;21067;-50
2021/10/27 14:09:03;;;;;;;2.12;1.75;;;;;;;18.53;42.05;102533.22;1536256;93;21118;-54
2021/10/27 14:14:07;;;;;;;2.50;1.62;;;;;;;18.43;42.38;102541.37;1496530;96;21261;-54
2021/10/27 15:22:14;;;;;;;2.35;1.40;;;;;;;17.31;45.36;102559.79;1714340;82;21006;-52
2021/10/27 15:30:19;;;;;;;3.60;1.95;;;;;;;17.33;45.35;102579.05;1719393;83;21017;-52
2021/10/27 15:40:41;;;;;;;2.87;2.02;;;;;;;17.30;45.86;102581.75;1719328;83;21061;-49
2021/10/27 15:53:23;;;;;;;4.40;1.65;;;;;;;17.27;46.02;102592.33;1652128;86;21054;-52
2021/10/27 15:55:50;;;;;;;1.98;1.30;;;;;;;17.28;46.07;102596.70;1646863;86;21053;-50
2021/10/27 15:58:17;;;;;;;3.22;1.67;;;;;;;17.30;46.00;102594.91;1648386;86;21617;-52
2021/10/27 16:00:44;;;;;;;2.20;1.60;;;;;;;17.32;45.71;102606.27;1644696;86;21066;-49
2021/10/27 16:03:11;;;;;;;2.80;1.55;;;;;;;17.35;45.56;102610.14;1650565;86;21050;-51
2021/10/27 16:05:42;;;;;;;4.25;1.98;;;;;;;17.36;45.50;102605.31;1651143;86;21038;-51
2021/10/27 16:08:13;;;;;;;5.17;1.55;;;;;;;17.37;45.39;102610.97;1636328;86;21500;-56
2021/10/27 16:10:40;;;;;;;1.90;1.67;;;;;;;17.37;45.30;102609.66;1626888;88;21102;-51
2021/10/27 16:13:07;;;;;;;2.22;1.77;;;;;;;17.38;45.50;102617.98;1623639;88;21079;-52
2021/10/27 16:15:40;;;;;;;2.12;1.45;;;;;;;17.38;45.77;102616.67;1625370;88;20999;-50
2021/10/27 16:18:11;;;;;;;2.12;1.45;;;;;;;17.37;45.81;102616.23;1626165;88;20997;-50
2021/10/27 16:20:40;;;;;;;1.85;1.50;;;;;;;17.38;45.78;102620.61;1622400;88;21514;-53
2021/10/27 16:23:08;;;;;;;6.33;1.80;;;;;;;17.37;45.95;102626.76;1622276;87;21096;-52
2021/10/27 16:25:36;;;;;;;2.62;1.85;;;;;;;17.36;46.24;102611.89;1633851;88;21507;-50
2021/10/27 16:28:04;;;;;;;3.60;1.87;;;;;;;17.37;46.22;102614.08;1623274;88;21082;-52
2021/10/27 16:30:32;;;;;;;2.08;1.75;;;;;;;17.37;46.27;102617.55;1643197;85;21106;-52
2021/10/27 16:32:59;;;;;;;2.47;1.60;;;;;;;17.37;46.27;102618.86;1686732;84;21042;-52
2021/10/27 16:35:27;;;;;;;5.28;2.20;;;;;;;17.40;45.95;102613.55;1677564;85;21057;-49